Time;durP1;ratioP1;P1;durP2;ratioP2;P2;SDS_P1;SDS_P2;PMS_P1;PMS_P2;Temp;Humidity;BMP_temperature;BMP_pressure;BME280_temperature;BME280_humidity;BME280_pressure;Samples;Min_cycle;Max_cycle;Signal;HPM_P1;HPM_P2
2022/10/22 00:06:06;;;;;;;7.43;3.20;;;15.70;99.90;;;;;;5027246;28;20072;-80
2022/10/22 00:08:32;;;;;;;5.20;3.00;;;15.60;99.90;;;;;;5037240;28;20220;-80
2022/10/22 00:10:57;;;;;;;7.13;2.97;;;15.60;99.90;;;;;;5037165;28;20140;-80
2022/10/22 00:13:23;;;;;;;4.13;2.78;;;15.50;99.90;;;;;;5002543;28;20505;-80
2022/10/22 00:15:49;;;;;;;6.68;2.90;;;15.50;99.90;;;;;;5019358;28;20028;-80
2022/10/22 00:18:15;;;;;;;7.28;2.80;;;15.50;99.90;;;;;;5019058;28;20463;-80
2022/10/22 00:20:41;;;;;;;6.43;3.20;;;15.50;99.90;;;;;;5037375;28;20030;-80
2022/10/22 00:23:06;;;;;;;6.97;2.83;;;15.50;99.90;;;;;;5037010;28;20378;-80
2022/10/22 00:25:34;;;;;;;8.35;3.10;;;15.50;99.90;;;;;;5036827;28;20112;-80
2022/10/22 00:28:01;;;;;;;4.25;2.50;;;15.40;99.90;;;;;;5019205;28;20047;-80
2022/10/22 00:30:27;;;;;;;6.78;2.60;;;15.40;99.90;;;;;;5018995;28;20025;-80
2022/10/22 00:32:52;;;;;;;7.50;3.20;;;15.40;99.90;;;;;;5018885;28;20033;-80
2022/10/22 00:35:18;;;;;;;7.63;3.20;;;15.40;99.90;;;;;;5011629;28;20065;-80
2022/10/22 00:37:43;;;;;;;6.22;3.60;;;15.30;99.90;;;;;;5003097;28;20030;-80
2022/10/22 00:40:10;;;;;;;7.50;3.00;;;15.30;99.90;;;;;;5018831;28;20121;-80
2022/10/22 00:42:35;;;;;;;6.40;3.53;;;15.30;99.90;;;;;;5002610;28;20030;-80
2022/10/22 00:45:10;;;;;;;8.90;3.20;;;15.30;99.90;;;;;;5018694;28;20056;-80
2022/10/22 00:47:38;;;;;;;8.40;3.20;;;15.30;99.90;;;;;;5015094;28;20480;-80
2022/10/22 00:50:10;;;;;;;5.45;3.15;;;15.30;99.90;;;;;;5026592;28;20022;-80
2022/10/22 00:52:36;;;;;;;5.80;3.30;;;15.20;99.90;;;;;;5036167;28;20034;-80
2022/10/22 00:55:02;;;;;;;7.47;3.35;;;15.20;99.90;;;;;;5018589;28;20021;-80
2022/10/22 00:57:28;;;;;;;7.47;3.20;;;15.20;99.90;;;;;;5036139;28;20025;-80
2022/10/22 00:59:56;;;;;;;6.03;3.10;;;15.20;99.90;;;;;;5036246;28;20030;-80
2022/10/22 01:02:21;;;;;;;8.25;3.75;;;15.10;99.90;;;;;;5018329;28;20021;-80
2022/10/22 01:04:47;;;;;;;4.88;3.20;;;15.10;99.90;;;;;;5002072;28;20034;-80
2022/10/22 01:07:20;;;;;;;4.45;3.20;;;15.10;99.90;;;;;;5018341;28;20037;-80
2022/10/22 01:09:58;;;;;;;5.80;3.28;;;15.10;99.90;;;;;;5035992;28;20109;-80
2022/10/22 01:12:53;;;;;;;5.95;3.38;;;15.00;99.90;;;;;;5018359;28;20028;-80
2022/10/22 01:15:23;;;;;;;7.78;3.67;;;15.00;99.90;;;;;;5000248;28;20395;-80
2022/10/22 01:18:08;;;;;;;8.32;3.45;;;15.00;99.90;;;;;;5018156;28;20021;-80
2022/10/22 01:20:36;;;;;;;7.15;3.63;;;15.00;99.90;;;;;;5024116;28;20050;-80
2022/10/22 01:23:22;;;;;;;6.55;3.47;;;14.90;99.90;;;;;;5021785;28;20025;-80
2022/10/22 01:25:58;;;;;;;5.25;3.53;;;14.90;99.90;;;;;;5007671;28;20124;-80
2022/10/22 01:29:08;;;;;;;7.35;3.63;;;14.90;99.90;;;;;;5017877;28;20040;-80
2022/10/22 01:31:55;;;;;;;7.55;3.97;;;14.90;99.90;;;;;;5035622;28;20202;-80
2022/10/22 01:34:23;;;;;;;8.30;3.78;;;14.80;99.90;;;;;;5008434;28;20058;-80
2022/10/22 01:36:51;;;;;;;6.65;3.88;;;14.80;99.90;;;;;;5031267;28;20113;-80
2022/10/22 01:39:19;;;;;;;7.53;4.18;;;14.80;99.90;;;;;;5035362;28;20463;-80
2022/10/22 01:41:45;;;;;;;5.97;4.22;;;14.80;99.90;;;;;;5035361;28;20030;-80
2022/10/22 01:44:28;;;;;;;6.40;4.30;;;14.80;99.90;;;;;;5017302;28;20037;-80
2022/10/22 01:47:04;;;;;;;8.02;4.07;;;14.70;99.90;;;;;;5017553;28;20472;-80
2022/10/22 01:50:06;;;;;;;7.25;4.20;;;14.70;99.90;;;;;;5035356;28;20029;-80
2022/10/22 01:53:05;;;;;;;8.90;4.03;;;14.70;99.90;;;;;;5006134;28;20144;-80
2022/10/22 01:56:01;;;;;;;8.52;5.00;;;14.60;99.90;;;;;;5015431;28;20021;-81
2022/10/22 01:58:53;;;;;;;10.77;4.65;;;14.60;99.90;;;;;;5009516;28;20109;-81
2022/10/22 02:01:29;;;;;;;6.57;4.35;;;14.60;99.90;;;;;;5021058;28;20120;-81
2022/10/22 02:04:10;;;;;;;6.85;4.25;;;14.60;99.90;;;;;;5022296;28;20060;-81
2022/10/22 02:06:38;;;;;;;9.18;4.45;;;14.50;99.90;;;;;;5017356;28;20018;-80
2022/10/22 02:09:05;;;;;;;7.13;4.32;;;14.50;99.90;;;;;;5017114;28;20494;-80
2022/10/22 02:11:30;;;;;;;7.50;4.40;;;14.50;99.90;;;;;;5003498;28;20036;-80
2022/10/22 02:14:06;;;;;;;9.02;4.40;;;14.50;99.90;;;;;;5017182;28;20029;-80
2022/10/22 02:16:40;;;;;;;5.43;3.80;;;14.40;99.90;;;;;;5025996;28;20372;-80
2022/10/22 02:19:36;;;;;;;10.25;3.90;;;14.40;99.90;;;;;;5016959;28;20021;-81
2022/10/22 02:22:03;;;;;;;8.95;4.22;;;14.40;99.90;;;;;;5034834;28;20052;-80
2022/10/22 02:24:29;;;;;;;7.10;4.20;;;14.40;99.90;;;;;;4999206;28;20436;-81
2022/10/22 02:27:03;;;;;;;7.35;4.45;;;14.30;99.90;;;;;;5042178;28;20025;-80
2022/10/22 02:29:53;;;;;;;10.30;4.40;;;14.30;99.90;;;;;;5021862;28;20112;-80
2022/10/22 02:32:21;;;;;;;7.43;4.72;;;14.30;99.90;;;;;;5026574;28;20040;-80
2022/10/22 02:34:49;;;;;;;8.23;4.75;;;14.30;99.90;;;;;;5020160;28;20033;-80
2022/10/22 02:37:16;;;;;;;9.45;4.78;;;14.20;99.90;;;;;;4992845;28;20021;-80
2022/10/22 02:39:42;;;;;;;10.30;4.35;;;14.20;99.90;;;;;;5021747;28;20029;-80
2022/10/22 02:42:09;;;;;;;7.05;3.97;;;14.20;99.90;;;;;;5016587;28;20422;-81
2022/10/22 02:44:34;;;;;;;5.95;4.18;;;14.20;99.90;;;;;;5034186;28;20391;-80
2022/10/22 02:47:00;;;;;;;9.15;4.53;;;14.10;99.90;;;;;;5000143;28;20025;-80
2022/10/22 02:49:26;;;;;;;7.63;4.72;;;14.10;99.90;;;;;;5026758;28;20037;-80
2022/10/22 02:55:14;;;;;;;10.25;4.70;;;14.10;99.90;;;;;;5032430;28;20037;-81
2022/10/22 02:57:39;;;;;;;10.73;5.05;;;14.10;99.90;;;;;;5014944;22;20009;-83
2022/10/22 03:00:06;;;;;;;9.00;4.93;;;14.00;99.90;;;;;;5020128;28;20140;-84
2022/10/22 03:02:32;;;;;;;10.25;4.70;;;14.00;99.90;;;;;;5031621;28;20116;-83
2022/10/22 03:04:58;;;;;;;7.07;4.60;;;14.00;99.90;;;;;;5045215;28;20115;-85
2022/10/22 03:07:24;;;;;;;10.05;5.65;;;14.00;99.90;;;;;;5044866;28;20367;-85
2022/10/22 03:09:49;;;;;;;11.55;4.95;;;14.00;99.90;;;;;;5073379;28;20144;-85
2022/10/22 03:12:15;;;;;;;7.68;5.47;;;14.00;99.90;;;;;;5040105;28;20489;-86
2022/10/22 03:14:41;;;;;;;11.93;4.85;;;14.00;99.90;;;;;;5040048;28;20048;-85
2022/10/22 03:17:06;;;;;;;8.10;4.50;;;14.00;99.90;;;;;;5023625;28;20112;-85
2022/10/22 03:19:32;;;;;;;10.40;5.40;;;14.00;99.90;;;;;;5056706;28;20477;-86
2022/10/22 03:22:10;;;;;;;9.18;4.60;;;14.00;99.90;;;;;;5039807;28;20523;-85
2022/10/22 03:24:49;;;;;;;6.93;4.45;;;14.00;99.90;;;;;;5056847;28;20359;-85
2022/10/22 03:27:19;;;;;;;8.13;4.28;;;14.00;99.90;;;;;;5056505;28;20025;-85
2022/10/22 03:29:45;;;;;;;10.50;4.53;;;14.00;99.90;;;;;;5054155;28;20063;-85
2022/10/22 03:32:12;;;;;;;9.38;4.82;;;14.00;99.90;;;;;;5039662;28;20024;-85
2022/10/22 03:34:37;;;;;;;12.30;4.43;;;14.00;99.90;;;;;;5039720;28;20119;-86
2022/10/22 03:37:03;;;;;;;6.10;3.95;;;14.00;99.90;;;;;;5055845;28;20119;-85
2022/10/22 03:39:32;;;;;;;8.77;3.92;;;14.00;99.90;;;;;;5043795;28;20163;-84
2022/10/22 03:41:58;;;;;;;9.48;4.00;;;14.00;99.90;;;;;;5040875;28;20728;-85
2022/10/22 03:44:24;;;;;;;8.77;3.70;;;14.00;99.90;;;;;;5045537;28;20029;-85
2022/10/22 03:46:50;;;;;;;10.65;4.05;;;14.00;99.90;;;;;;5019901;28;20048;-85
2022/10/22 03:49:16;;;;;;;9.30;3.63;;;14.00;99.90;;;;;;5056173;28;20412;-85
2022/10/22 03:51:42;;;;;;;7.32;3.47;;;14.00;99.90;;;;;;5025487;28;20501;-86
2022/10/22 03:54:08;;;;;;;5.40;3.10;;;14.00;99.90;;;;;;5039575;28;20025;-85
2022/10/22 03:56:33;;;;;;;5.47;3.00;;;14.00;99.90;;;;;;5039600;28;20082;-85
2022/10/22 03:59:00;;;;;;;6.80;3.42;;;14.10;99.90;;;;;;5035993;28;20041;-85
2022/10/22 04:01:28;;;;;;;7.93;2.88;;;14.10;99.90;;;;;;5019799;28;20585;-85
2022/10/22 04:03:54;;;;;;;8.23;2.72;;;14.10;99.90;;;;;;5049935;28;20466;-85
2022/10/22 04:06:20;;;;;;;8.82;3.47;;;14.10;99.90;;;;;;5041850;28;20063;-85
2022/10/22 04:08:46;;;;;;;7.97;3.25;;;14.10;99.90;;;;;;5053129;28;20024;-85
2022/10/22 04:11:13;;;;;;;7.32;3.50;;;14.10;99.90;;;;;;5056026;28;20020;-85
2022/10/22 04:13:39;;;;;;;13.77;4.25;;;14.20;99.90;;;;;;5056239;28;20032;-85
2022/10/22 04:16:10;;;;;;;11.77;4.10;;;14.20;99.90;;;;;;5036055;28;20020;-85
2022/10/22 04:18:35;;;;;;;11.07;4.00;;;14.30;99.90;;;;;;5052597;28;20017;-84
2022/10/22 04:21:02;;;;;;;15.93;4.40;;;14.30;99.90;;;;;;5006003;28;20469;-85
2022/10/22 04:23:28;;;;;;;9.60;4.25;;;14.40;99.90;;;;;;5055701;28;20044;-83
2022/10/22 04:25:58;;;;;;;11.68;4.80;;;14.40;99.90;;;;;;5045834;28;20500;-84
2022/10/22 04:28:24;;;;;;;15.60;4.40;;;14.40;99.90;;;;;;5023918;28;20036;-84
2022/10/22 04:34:34;;;;;;;15.13;4.88;;;14.60;99.90;;;;;;5058086;28;20035;-84
2022/10/22 04:36:59;;;;;;;10.85;4.65;;;14.60;99.90;;;;;;5035313;28;20044;-84
2022/10/22 04:39:25;;;;;;;9.07;3.90;;;14.60;99.90;;;;;;5032498;28;20538;-85
2022/10/22 04:41:51;;;;;;;9.43;4.45;;;14.60;99.90;;;;;;5055025;28;20032;-84
2022/10/22 04:44:16;;;;;;;10.43;4.20;;;14.60;99.90;;;;;;5055943;28;20032;-84
2022/10/22 04:46:42;;;;;;;13.10;4.38;;;14.60;99.90;;;;;;5029020;28;20025;-85
2022/10/22 04:49:08;;;;;;;9.32;4.38;;;14.60;99.90;;;;;;5043494;28;20021;-85
2022/10/22 04:51:33;;;;;;;11.48;4.53;;;14.60;99.90;;;;;;5018016;28;20079;-86
2022/10/22 04:53:59;;;;;;;9.50;4.20;;;14.60;99.90;;;;;;5053131;28;20028;-85
2022/10/22 04:56:27;;;;;;;11.18;4.50;;;14.60;99.90;;;;;;5039465;28;20112;-85
2022/10/22 04:58:59;;;;;;;11.15;4.15;;;14.60;99.90;;;;;;5068137;28;20044;-85
2022/10/22 05:01:26;;;;;;;;;;;14.60;99.90;;;;;;5043852;28;20031;-86
2022/10/22 05:03:54;;;;;;;12.15;4.50;;;14.60;99.90;;;;;;5048082;28;19904;-85
2022/10/22 05:06:21;;;;;;;10.25;4.20;;;14.60;99.90;;;;;;5056980;28;20028;-85
2022/10/22 05:08:51;;;;;;;9.93;4.47;;;14.60;99.90;;;;;;5049487;28;20033;-86
2022/10/22 05:11:18;;;;;;;9.90;4.30;;;14.60;99.90;;;;;;5040676;28;20496;-86
2022/10/22 05:13:44;;;;;;;15.70;5.50;;;14.50;99.90;;;;;;5059118;28;20056;-87
2022/10/22 05:16:11;;;;;;;13.55;5.18;;;14.60;99.90;;;;;;5059165;28;20012;-85
2022/10/22 05:18:39;;;;;;;10.25;4.15;;;14.60;99.90;;;;;;5022497;28;20493;-85
2022/10/22 05:21:11;;;;;;;11.02;4.22;;;14.60;99.90;;;;;;5067925;28;20055;-84
2022/10/22 05:23:37;;;;;;;12.80;5.18;;;14.60;99.90;;;;;;5058667;28;20027;-86
2022/10/22 05:26:08;;;;;;;10.07;5.05;;;14.60;99.90;;;;;;5038757;28;20546;-85
2022/10/22 05:28:35;;;;;;;10.80;4.78;;;14.60;99.90;;;;;;5073968;28;20028;-85
2022/10/22 05:31:02;;;;;;;10.52;4.47;;;14.50;99.90;;;;;;5068222;28;20035;-85
2022/10/22 05:33:28;;;;;;;9.82;4.47;;;14.60;99.90;;;;;;5058765;28;20378;-86
2022/10/22 05:35:54;;;;;;;12.27;4.00;;;14.50;99.90;;;;;;5042087;28;20470;-86
2022/10/22 05:38:20;;;;;;;8.98;4.05;;;14.50;99.90;;;;;;5027762;28;20086;-86
2022/10/22 05:40:46;;;;;;;10.57;4.68;;;14.50;99.90;;;;;;5038534;28;20017;-84
2022/10/22 05:43:12;;;;;;;14.13;4.82;;;14.50;99.90;;;;;;5050870;28;20500;-85
2022/10/22 05:45:41;;;;;;;10.32;4.47;;;14.50;99.90;;;;;;5041908;28;20024;-85
2022/10/22 05:48:08;;;;;;;9.10;4.78;;;14.50;99.90;;;;;;5058386;28;20060;-85
2022/10/22 05:50:38;;;;;;;10.75;4.03;;;14.50;99.90;;;;;;5056475;28;20406;-86
2022/10/22 05:53:04;;;;;;;7.72;4.38;;;14.50;99.90;;;;;;5030632;28;20055;-85
2022/10/22 05:55:39;;;;;;;12.07;3.95;;;14.50;99.90;;;;;;5041620;28;20017;-85
2022/10/22 05:58:05;;;;;;;13.18;4.35;;;14.50;99.90;;;;;;5033882;28;20109;-85
2022/10/22 06:00:31;;;;;;;8.40;4.55;;;14.50;99.90;;;;;;5035111;28;20119;-86
2022/10/22 06:02:56;;;;;;;9.95;4.00;;;14.50;99.90;;;;;;5038851;28;20033;-84
2022/10/22 06:05:22;;;;;;;13.55;4.35;;;14.50;99.90;;;;;;5041601;28;20119;-85
2022/10/22 06:07:48;;;;;;;11.80;4.15;;;14.50;99.90;;;;;;5037257;28;20032;-84
2022/10/22 06:10:16;;;;;;;13.57;4.38;;;14.50;99.90;;;;;;5028101;28;20479;-85
2022/10/22 06:12:42;;;;;;;12.20;4.40;;;14.50;99.90;;;;;;5067812;28;20112;-84
2022/10/22 06:15:11;;;;;;;11.05;4.78;;;14.50;99.90;;;;;;5021602;28;20053;-86
2022/10/22 06:17:36;;;;;;;12.10;5.13;;;14.50;99.90;;;;;;5038149;28;20021;-86
2022/10/22 06:20:02;;;;;;;10.43;5.10;;;14.50;99.90;;;;;;5024511;28;20028;-85
2022/10/22 06:22:28;;;;;;;16.85;4.63;;;14.50;99.90;;;;;;5021222;28;20021;-85
2022/10/22 06:24:54;;;;;;;12.55;3.90;;;14.50;99.90;;;;;;5036370;28;20368;-85
2022/10/22 06:27:19;;;;;;;12.40;4.53;;;14.50;99.90;;;;;;5037702;28;20058;-85
2022/10/22 06:29:46;;;;;;;11.85;4.57;;;14.50;99.90;;;;;;5038010;28;20070;-85
2022/10/22 06:32:13;;;;;;;12.75;5.00;;;14.60;99.90;;;;;;5058608;28;20020;-85
2022/10/22 06:34:39;;;;;;;11.23;4.57;;;14.60;99.90;;;;;;5058526;28;20481;-84
2022/10/22 06:37:05;;;;;;;9.10;4.00;;;14.60;99.90;;;;;;5055604;28;20032;-87
2022/10/22 06:39:30;;;;;;;12.52;4.40;;;14.60;99.90;;;;;;5033181;28;20021;-88
2022/10/22 06:41:56;;;;;;;13.68;4.47;;;14.60;99.90;;;;;;5056884;28;20087;-87
2022/10/22 06:44:22;;;;;;;11.73;4.40;;;14.60;99.90;;;;;;5057682;28;20503;-85
2022/10/22 06:46:52;;;;;;;15.15;4.22;;;14.60;99.90;;;;;;5033779;28;20032;-85
2022/10/22 06:49:21;;;;;;;11.88;4.53;;;14.60;99.90;;;;;;5071618;28;20028;-85
2022/10/22 06:51:53;;;;;;;12.25;4.78;;;14.60;99.90;;;;;;5049162;28;20040;-85
2022/10/22 06:54:20;;;;;;;12.02;4.15;;;14.60;99.90;;;;;;5073734;28;20066;-85
2022/10/22 06:56:45;;;;;;;10.80;4.03;;;14.60;99.90;;;;;;5062185;28;20063;-86
2022/10/22 06:59:11;;;;;;;14.10;5.20;;;14.60;99.90;;;;;;5039506;28;20078;-85
2022/10/22 07:01:46;;;;;;;14.00;6.00;;;14.60;99.90;;;;;;5030337;28;20025;-85
2022/10/22 07:04:12;;;;;;;13.27;4.20;;;14.60;99.90;;;;;;5054799;28;20025;-85
2022/10/22 07:06:38;;;;;;;13.63;4.25;;;14.60;99.90;;;;;;5040013;28;20377;-85
2022/10/22 07:09:04;;;;;;;13.55;4.20;;;14.60;99.90;;;;;;5056608;28;20027;-85
2022/10/22 07:11:37;;;;;;;11.55;4.40;;;14.60;99.90;;;;;;5044836;28;20035;-85
2022/10/22 07:14:03;;;;;;;10.82;4.82;;;14.60;99.90;;;;;;5076521;28;20070;-84
2022/10/22 07:16:29;;;;;;;11.10;4.38;;;14.60;99.90;;;;;;5041403;28;20458;-84
2022/10/22 07:18:54;;;;;;;12.90;5.05;;;14.60;99.90;;;;;;5031587;28;20047;-83
2022/10/22 07:21:21;;;;;;;11.82;4.65;;;14.70;99.90;;;;;;5056526;28;20347;-85
2022/10/22 07:23:50;;;;;;;7.53;3.63;;;14.70;99.90;;;;;;5056444;28;20025;-85
2022/10/22 07:26:19;;;;;;;13.70;4.43;;;14.80;99.90;;;;;;5039763;28;20028;-84
2022/10/22 07:28:45;;;;;;;11.85;4.05;;;14.70;99.90;;;;;;5061319;28;20025;-84
2022/10/22 07:31:13;;;;;;;10.85;4.63;;;14.80;99.90;;;;;;5045342;28;20040;-84
2022/10/22 07:33:39;;;;;;;15.43;3.95;;;14.80;99.90;;;;;;5056298;28;20036;-85
2022/10/22 07:36:08;;;;;;;10.68;3.72;;;14.80;99.90;;;;;;5056437;28;20056;-85
2022/10/22 07:38:34;;;;;;;14.45;4.40;;;14.90;99.90;;;;;;5046559;28;20545;-85
2022/10/22 07:41:00;;;;;;;14.65;4.53;;;14.90;99.90;;;;;;5020945;28;20051;-87
2022/10/22 07:43:26;;;;;;;11.40;3.72;;;15.00;99.90;;;;;;5025472;28;20029;-87
2022/10/22 07:45:54;;;;;;;15.48;4.53;;;15.00;99.90;;;;;;5025905;28;20021;-87
2022/10/22 07:48:20;;;;;;;16.05;3.95;;;15.00;99.90;;;;;;5059130;28;20120;-85
2022/10/22 07:50:48;;;;;;;17.95;4.18;;;15.00;99.90;;;;;;5026945;28;20056;-87
2022/10/22 07:53:13;;;;;;;10.55;4.03;;;15.10;99.90;;;;;;5042835;28;20389;-87
2022/10/22 07:56:01;;;;;;;11.60;4.15;;;15.10;99.90;;;;;;5038608;28;20025;-87
2022/10/22 07:58:26;;;;;;;14.02;4.75;;;15.10;99.90;;;;;;5034571;28;20037;-85
2022/10/22 08:00:55;;;;;;;10.60;3.90;;;15.10;99.90;;;;;;5019428;28;20097;-86
2022/10/22 08:03:21;;;;;;;8.90;3.58;;;15.10;99.90;;;;;;5002187;28;20052;-86
2022/10/22 08:05:47;;;;;;;9.90;3.88;;;15.20;99.90;;;;;;5011672;28;20041;-87
2022/10/22 08:08:14;;;;;;;10.40;3.28;;;15.20;99.90;;;;;;5018763;28;20475;-86
2022/10/22 08:10:40;;;;;;;10.05;3.50;;;15.20;99.90;;;;;;5016268;28;20044;-86
2022/10/22 08:13:06;;;;;;;11.48;3.60;;;15.20;99.90;;;;;;5029445;28;20025;-84
2022/10/22 08:15:32;;;;;;;13.85;3.58;;;15.30;99.90;;;;;;5035447;28;20135;-84
2022/10/22 08:17:58;;;;;;;10.13;3.40;;;15.40;99.90;;;;;;5017611;28;20029;-86
2022/10/22 08:20:23;;;;;;;8.38;3.35;;;15.40;99.90;;;;;;5016575;28;20026;-85
2022/10/22 08:22:49;;;;;;;12.00;3.33;;;15.50;99.90;;;;;;5014787;28;20029;-86
2022/10/22 08:25:16;;;;;;;12.88;3.60;;;15.50;99.90;;;;;;5043165;28;20028;-84
2022/10/22 08:27:43;;;;;;;10.02;2.97;;;15.60;99.90;;;;;;5019772;28;20030;-86
2022/10/22 08:30:09;;;;;;;11.43;3.65;;;15.60;99.90;;;;;;5042898;28;20085;-86
2022/10/22 08:32:35;;;;;;;10.23;3.20;;;15.60;99.90;;;;;;5027765;28;20045;-84
2022/10/22 08:35:01;;;;;;;11.43;3.28;;;15.70;99.90;;;;;;5042103;28;20021;-86
2022/10/22 08:37:29;;;;;;;10.88;2.90;;;15.70;99.90;;;;;;5027414;28;20032;-86
2022/10/22 08:39:55;;;;;;;10.93;2.80;;;15.70;99.90;;;;;;5017854;28;20018;-85
2022/10/22 08:42:42;;;;;;;14.68;4.13;;;15.80;99.90;;;;;;5006776;28;20029;-86
2022/10/22 08:45:11;;;;;;;14.18;3.72;;;15.80;99.90;;;;;;5036446;28;20025;-86
2022/10/22 08:48:07;;;;;;;11.60;2.70;;;15.80;99.90;;;;;;5023113;28;20026;-86
2022/10/22 08:50:40;;;;;;;14.07;3.10;;;15.90;99.90;;;;;;5035468;28;20474;-87
2022/10/22 08:53:16;;;;;;;10.85;2.97;;;15.90;99.90;;;;;;5043057;28;20403;-87
2022/10/22 08:55:42;;;;;;;10.30;2.45;;;16.00;99.90;;;;;;5042674;28;20018;-86
2022/10/22 08:58:16;;;;;;;10.30;2.78;;;16.00;99.90;;;;;;5025546;28;20033;-87
2022/10/22 09:00:43;;;;;;;11.75;2.45;;;16.10;99.90;;;;;;5044550;28;20048;-86
2022/10/22 09:03:25;;;;;;;12.32;2.92;;;16.10;99.90;;;;;;5043948;28;20032;-86
2022/10/22 09:05:54;;;;;;;17.55;3.67;;;16.20;99.90;;;;;;5048524;28;20442;-87
2022/10/22 09:08:20;;;;;;;9.60;2.40;;;16.20;99.90;;;;;;5042479;28;20131;-87
2022/10/22 09:10:49;;;;;;;9.40;2.65;;;16.20;99.90;;;;;;5021655;28;20075;-87
2022/10/22 09:13:21;;;;;;;8.68;2.47;;;16.30;99.90;;;;;;5051830;28;20025;-87
2022/10/22 09:16:16;;;;;;;10.27;2.72;;;16.30;99.90;;;;;;5008081;28;20030;-86
2022/10/22 09:18:50;;;;;;;10.02;2.58;;;16.30;99.90;;;;;;5028033;28;20022;-88
2022/10/22 09:21:47;;;;;;;9.48;2.42;;;16.30;99.90;;;;;;5037471;28;20025;-85
2022/10/22 09:24:21;;;;;;;11.63;3.00;;;16.30;99.90;;;;;;5008435;28;20041;-86
2022/10/22 09:26:47;;;;;;;10.50;2.67;;;16.30;99.90;;;;;;5032447;28;20017;-87
2022/10/22 09:29:18;;;;;;;12.55;2.78;;;16.30;99.90;;;;;;5007475;28;20035;-87
2022/10/22 09:31:44;;;;;;;9.65;2.28;;;16.30;99.90;;;;;;5037187;28;20017;-87
2022/10/22 09:34:14;;;;;;;11.95;3.20;;;16.30;99.90;;;;;;5032811;28;20031;-87
2022/10/22 09:36:40;;;;;;;12.07;2.47;;;16.30;99.90;;;;;;5029985;28;20017;-87
2022/10/22 09:39:22;;;;;;;9.98;2.60;;;16.30;99.90;;;;;;5024353;28;20032;-87
2022/10/22 09:41:48;;;;;;;14.85;4.95;;;16.40;99.90;;;;;;5041830;28;20441;-87
2022/10/22 09:44:14;;;;;;;10.25;2.40;;;16.30;99.90;;;;;;5010865;28;20025;-87
2022/10/22 09:46:42;;;;;;;9.10;2.28;;;16.30;99.90;;;;;;5021307;28;20532;-86
2022/10/22 09:49:18;;;;;;;11.98;2.70;;;16.40;99.90;;;;;;5036360;28;20022;-87
2022/10/22 09:51:58;;;;;;;12.80;2.42;;;16.40;99.90;;;;;;5033384;28;20028;-88
2022/10/22 09:54:36;;;;;;;10.82;2.20;;;16.40;99.90;;;;;;5044857;28;20036;-85
2022/10/22 09:57:09;;;;;;;11.43;2.50;;;16.40;99.90;;;;;;5047301;28;20013;-86
2022/10/22 09:59:40;;;;;;;10.75;2.20;;;16.40;99.90;;;;;;5041693;28;20072;-87
2022/10/22 10:02:15;;;;;;;12.30;2.25;;;16.40;99.90;;;;;;5034684;28;20025;-87
2022/10/22 10:04:50;;;;;;;10.38;2.30;;;16.50;99.90;;;;;;5052277;28;20095;-87
2022/10/22 10:07:29;;;;;;;12.18;3.00;;;16.50;99.90;;;;;;5030048;28;20026;-86
2022/10/22 10:09:56;;;;;;;11.32;2.22;;;16.50;99.90;;;;;;5011020;28;20093;-87
2022/10/22 10:15:37;;;;;;;12.00;2.60;;;16.50;99.90;;;;;;5052069;28;20086;-83
2022/10/22 10:18:09;;;;;;;7.07;2.03;;;16.60;99.90;;;;;;5034998;28;20051;-85
2022/10/22 10:20:58;;;;;;;9.15;2.42;;;16.60;99.90;;;;;;5029880;28;20505;-86
2022/10/22 10:23:38;;;;;;;9.27;2.85;;;16.60;99.90;;;;;;5038300;28;20032;-85
2022/10/22 10:26:14;;;;;;;10.63;2.70;;;16.60;99.90;;;;;;5034780;28;20025;-85
2022/10/22 10:29:08;;;;;;;10.43;3.15;;;16.60;99.90;;;;;;5035908;28;20032;-85
2022/10/22 10:32:07;;;;;;;9.45;3.30;;;16.70;99.90;;;;;;5037138;28;20041;-85
2022/10/22 10:34:42;;;;;;;8.52;2.30;;;16.70;99.90;;;;;;5036472;28;20016;-86
2022/10/22 10:37:08;;;;;;;11.20;3.05;;;16.70;99.90;;;;;;5034409;28;20021;-86
2022/10/22 10:39:43;;;;;;;15.90;3.25;;;16.80;99.90;;;;;;5034903;28;20021;-84
2022/10/22 10:45:52;;;;;;;9.32;2.85;;;16.80;99.90;;;;;;5059026;28;20107;-88
2022/10/22 10:48:53;;;;;;;10.13;2.47;;;16.90;99.90;;;;;;5042050;28;20036;-86
2022/10/22 10:51:42;;;;;;;16.17;3.33;;;16.90;99.90;;;;;;5033373;28;20051;-87
2022/10/22 10:54:19;;;;;;;11.90;3.30;;;16.90;99.90;;;;;;5046045;28;20034;-85
2022/10/22 10:57:20;;;;;;;13.40;3.42;;;16.90;99.90;;;;;;5057857;28;20025;-86
2022/10/22 11:00:22;;;;;;;13.00;2.90;;;17.00;99.90;;;;;;4970212;28;20042;-85
2022/10/22 11:03:21;;;;;;;6.50;2.50;;;17.00;99.90;;;;;;5038707;28;20036;-86
2022/10/22 11:06:10;;;;;;;11.38;2.65;;;17.10;99.90;;;;;;5037958;28;20071;-86
2022/10/22 11:09:04;;;;;;;11.20;2.90;;;17.10;99.90;;;;;;5023312;28;20433;-86
2022/10/22 11:11:51;;;;;;;10.00;2.75;;;17.20;99.90;;;;;;5033729;28;20102;-86
2022/10/22 11:14:45;;;;;;;8.45;2.67;;;17.20;99.90;;;;;;5028128;28;20025;-87
2022/10/22 11:17:16;;;;;;;9.98;2.20;;;17.30;99.90;;;;;;5039845;28;20036;-89
2022/10/22 11:20:26;;;;;;;11.90;2.80;;;17.40;99.90;;;;;;5040090;28;20049;-87
2022/10/22 11:23:11;;;;;;;9.48;2.28;;;17.50;99.90;;;;;;5052989;28;20054;-85
2022/10/22 11:25:48;;;;;;;13.85;2.55;;;17.60;99.90;;;;;;5037222;28;20029;-88
2022/10/22 11:28:18;;;;;;;9.35;3.15;;;17.70;99.90;;;;;;5039041;28;20025;-85
2022/10/22 11:30:52;;;;;;;18.42;3.00;;;17.70;99.90;;;;;;5036803;28;20364;-87
2022/10/22 11:33:23;;;;;;;12.15;2.25;;;17.80;99.90;;;;;;5028385;28;20033;-89
2022/10/22 11:35:50;;;;;;;12.73;2.47;;;17.90;99.90;;;;;;5030045;28;20018;-87
2022/10/22 11:38:22;;;;;;;8.57;2.40;;;17.90;99.90;;;;;;5025334;28;20028;-86
2022/10/22 11:41:10;;;;;;;11.15;2.97;;;18.00;99.90;;;;;;5038945;28;20032;-86
2022/10/22 11:44:08;;;;;;;9.02;2.55;;;18.00;99.90;;;;;;5037422;28;20010;-86
2022/10/22 11:46:53;;;;;;;9.05;2.45;;;18.00;99.90;;;;;;5038135;28;20017;-86
2022/10/22 11:49:46;;;;;;;8.15;1.80;;;18.00;99.90;;;;;;5037815;28;20032;-86
2022/10/22 11:52:31;;;;;;;8.43;2.08;;;18.00;99.90;;;;;;5043150;28;20116;-85
2022/10/22 11:55:00;;;;;;;12.20;2.35;;;18.10;99.90;;;;;;5032205;28;20032;-85
2022/10/22 11:57:34;;;;;;;9.57;2.17;;;18.10;99.90;;;;;;5035573;28;20415;-85
2022/10/22 12:00:00;;;;;;;10.10;2.38;;;18.00;99.90;;;;;;5028188;28;20126;-85
2022/10/22 12:02:38;;;;;;;10.00;2.53;;;18.10;99.90;;;;;;5012066;28;20117;-85
2022/10/22 12:05:22;;;;;;;13.15;2.60;;;18.10;99.90;;;;;;5020122;28;20089;-86
2022/10/22 12:08:24;;;;;;;12.02;2.25;;;18.10;99.90;;;;;;5025578;28;20037;-86
2022/10/22 12:11:36;;;;;;;10.77;2.60;;;18.10;99.90;;;;;;4935256;29;20050;-85
2022/10/22 12:14:31;;;;;;;9.25;2.63;;;18.10;99.90;;;;;;4952028;29;20171;-85
2022/10/22 12:17:16;;;;;;;12.75;3.00;;;18.20;99.90;;;;;;5024606;28;20022;-85
2022/10/22 12:20:06;;;;;;;8.35;2.40;;;18.20;99.90;;;;;;5037673;28;20107;-84
2022/10/22 12:22:44;;;;;;;12.02;2.65;;;18.20;99.90;;;;;;5039013;28;20021;-84
2022/10/22 12:25:37;;;;;;;11.75;2.28;;;18.20;99.90;;;;;;5008026;28;20030;-84
2022/10/22 12:28:12;;;;;;;12.27;2.90;;;18.30;99.90;;;;;;5029006;28;20037;-83
2022/10/22 12:30:38;;;;;;;9.15;2.35;;;18.30;99.90;;;;;;5035984;28;20029;-84
2022/10/22 12:33:07;;;;;;;11.27;2.67;;;18.40;99.90;;;;;;5025995;28;20564;-84
2022/10/22 12:35:41;;;;;;;11.35;3.05;;;18.40;99.90;;;;;;5050278;28;20051;-84
2022/10/22 12:38:19;;;;;;;12.02;2.53;;;18.50;99.90;;;;;;5035829;28;20028;-84
2022/10/22 12:40:45;;;;;;;12.98;3.42;;;18.50;99.90;;;;;;5035887;28;20044;-84
2022/10/22 12:43:13;;;;;;;10.48;2.75;;;18.50;99.90;;;;;;5036515;28;20378;-84
2022/10/22 12:45:47;;;;;;;10.05;2.42;;;18.60;99.90;;;;;;5016578;28;20131;-83
2022/10/22 12:48:19;;;;;;;15.35;2.75;;;18.60;99.90;;;;;;5012120;28;20033;-82
2022/10/22 12:50:49;;;;;;;11.15;2.50;;;18.60;99.90;;;;;;5036481;28;20025;-82
2022/10/22 12:53:23;;;;;;;10.32;2.38;;;18.60;99.90;;;;;;5032652;28;20113;-82
2022/10/22 12:55:52;;;;;;;11.32;2.35;;;18.60;99.90;;;;;;5037079;28;20534;-84
2022/10/22 12:58:21;;;;;;;7.45;2.42;;;18.70;99.90;;;;;;5035879;28;20028;-84
2022/10/22 13:00:48;;;;;;;10.32;2.55;;;18.70;99.90;;;;;;5042646;28;20037;-83
2022/10/22 13:03:27;;;;;;;11.77;2.78;;;18.70;99.90;;;;;;5040698;28;20051;-84
2022/10/22 13:05:53;;;;;;;14.68;2.78;;;18.70;99.90;;;;;;5055570;28;20029;-83
2022/10/22 13:08:25;;;;;;;13.30;2.88;;;18.70;99.90;;;;;;5057237;28;20035;-83
2022/10/22 13:10:52;;;;;;;11.52;2.47;;;18.70;99.90;;;;;;5056221;28;20107;-84
2022/10/22 13:13:30;;;;;;;12.95;2.95;;;18.70;99.90;;;;;;5051607;28;20100;-84
2022/10/22 13:16:11;;;;;;;13.38;2.65;;;18.70;99.90;;;;;;5059014;28;20145;-83
2022/10/22 13:18:36;;;;;;;10.65;2.55;;;18.70;99.90;;;;;;5033408;28;20025;-84
2022/10/22 13:21:02;;;;;;;14.88;2.50;;;18.70;99.90;;;;;;5040275;28;20024;-83
2022/10/22 13:23:30;;;;;;;14.48;3.42;;;18.70;99.90;;;;;;5022437;28;20497;-82